createdAt,value
2018-03-15T00:00:08.813Z,99.90
2018-03-15T00:02:37.781Z,99.90
2018-03-15T00:05:05.246Z,99.90
2018-03-15T00:07:32.739Z,99.90
2018-03-15T00:10:00.248Z,99.90
2018-03-15T00:12:27.764Z,99.90
2018-03-15T00:14:55.254Z,99.90
2018-03-15T00:17:22.744Z,99.90
2018-03-15T00:19:51.034Z,99.90
2018-03-15T00:22:18.531Z,99.90
2018-03-15T00:24:46.015Z,99.90
2018-03-15T00:27:13.493Z,99.90
2018-03-15T00:29:41.744Z,99.90
2018-03-15T00:32:09.247Z,99.90
2018-03-15T00:34:36.728Z,99.90
2018-03-15T00:37:04.260Z,99.90
2018-03-15T00:39:31.756Z,99.90
2018-03-15T00:41:59.551Z,99.90
2018-03-15T00:44:27.070Z,99.90
2018-03-15T00:46:54.547Z,99.90
2018-03-15T00:49:22.060Z,99.90
2018-03-15T00:51:49.578Z,99.90
2018-03-15T00:54:17.090Z,99.90
2018-03-15T00:56:44.615Z,99.90
2018-03-15T00:59:12.112Z,99.90
2018-03-15T01:01:39.620Z,99.90
2018-03-15T01:04:07.103Z,99.90
2018-03-15T01:06:35.305Z,99.90
2018-03-15T01:09:02.804Z,99.90
2018-03-15T01:11:30.294Z,99.90
2018-03-15T01:13:57.783Z,99.90
2018-03-15T01:16:25.287Z,99.90
2018-03-15T01:18:52.765Z,99.90
2018-03-15T01:21:20.303Z,99.90
2018-03-15T01:23:47.835Z,99.90
2018-03-15T01:26:15.367Z,99.90
2018-03-15T01:28:42.846Z,99.90
2018-03-15T01:31:10.347Z,99.90
2018-03-15T01:33:38.607Z,99.90
2018-03-15T01:36:06.117Z,99.90
2018-03-15T01:38:33.623Z,99.90
2018-03-15T01:41:01.112Z,99.90
2018-03-15T01:43:28.600Z,99.90
2018-03-15T01:45:56.110Z,99.90
2018-03-15T01:48:23.613Z,99.90
2018-03-15T01:50:51.117Z,99.90
2018-03-15T01:53:19.364Z,99.90
2018-03-15T01:55:46.875Z,99.90
2018-03-15T01:58:14.368Z,99.90
2018-03-15T02:00:41.886Z,99.90
2018-03-15T02:03:09.402Z,99.90
2018-03-15T02:08:10.863Z,99.90
2018-03-15T02:10:38.356Z,99.90
2018-03-15T02:13:06.596Z,99.90
2018-03-15T02:15:35.628Z,99.90
2018-03-15T02:18:03.863Z,99.90
2018-03-15T02:20:31.344Z,99.90
2018-03-15T02:22:59.612Z,99.90
2018-03-15T02:25:27.101Z,99.90
2018-03-15T02:27:54.608Z,99.90
2018-03-15T02:30:22.115Z,99.90
2018-03-15T02:32:49.603Z,99.90
2018-03-15T02:35:17.076Z,99.90
2018-03-15T02:37:44.605Z,99.90
2018-03-15T02:40:12.107Z,99.90
2018-03-15T02:42:39.611Z,99.90
2018-03-15T02:45:07.108Z,99.90
2018-03-15T02:47:34.617Z,99.90
2018-03-15T02:50:02.089Z,99.90
2018-03-15T02:52:29.626Z,99.90
2018-03-15T02:54:57.900Z,99.90
2018-03-15T02:57:26.155Z,99.90
2018-03-15T02:59:53.671Z,99.90
2018-03-15T03:02:21.171Z,99.90
2018-03-15T03:04:48.717Z,99.90
2018-03-15T03:07:16.278Z,99.90
2018-03-15T03:09:43.776Z,99.90
2018-03-15T03:12:11.278Z,99.90
2018-03-15T03:14:38.824Z,99.90
2018-03-15T03:17:06.329Z,99.90
2018-03-15T03:19:34.597Z,99.90
2018-03-15T03:22:02.107Z,99.90
2018-03-15T03:24:29.587Z,99.90
2018-03-15T03:26:57.068Z,99.90
2018-03-15T03:29:24.577Z,99.90
2018-03-15T03:31:52.846Z,99.90
2018-03-15T03:34:20.342Z,99.90
2018-03-15T03:36:47.842Z,99.90
2018-03-15T03:39:15.550Z,99.90
2018-03-15T03:41:43.053Z,99.90
2018-03-15T03:44:10.569Z,99.90
2018-03-15T03:46:38.056Z,99.90
2018-03-15T03:49:05.562Z,99.90
2018-03-15T03:51:33.845Z,99.90
2018-03-15T03:54:01.332Z,99.90
2018-03-15T03:56:28.842Z,99.90
2018-03-15T03:58:56.351Z,99.90
2018-03-15T04:01:23.838Z,99.90
2018-03-15T04:03:52.100Z,99.90
2018-03-15T04:06:19.609Z,99.90
2018-03-15T04:08:47.612Z,99.90
2018-03-15T04:11:15.111Z,99.90
2018-03-15T04:13:44.319Z,99.90
2018-03-15T04:16:11.817Z,99.90
2018-03-15T04:18:39.405Z,99.90
2018-03-15T04:21:06.896Z,99.90
2018-03-15T04:23:34.452Z,99.90
2018-03-15T04:26:01.979Z,99.90
2018-03-15T04:28:29.494Z,99.90
2018-03-15T04:30:56.975Z,99.90
2018-03-15T04:33:24.842Z,99.90
2018-03-15T04:35:52.314Z,99.90
2018-03-15T04:38:20.604Z,99.90
2018-03-15T04:40:48.861Z,99.90
2018-03-15T04:43:16.369Z,99.90
2018-03-15T04:45:43.872Z,99.90
2018-03-15T04:48:11.359Z,99.90
2018-03-15T04:50:39.619Z,99.90
2018-03-15T04:53:07.903Z,99.90
2018-03-15T04:55:36.162Z,99.90
2018-03-15T04:58:03.659Z,99.90
2018-03-15T05:00:31.174Z,99.90
2018-03-15T05:02:58.669Z,99.90
2018-03-15T05:05:26.173Z,99.90
2018-03-15T05:07:53.671Z,99.90
2018-03-15T05:10:21.951Z,99.90
2018-03-15T05:12:50.200Z,99.90
2018-03-15T05:15:17.725Z,99.90
2018-03-15T05:17:45.206Z,99.90
2018-03-15T05:20:12.702Z,99.90
2018-03-15T05:22:40.224Z,99.90
2018-03-15T05:25:08.534Z,99.90
2018-03-15T05:27:35.992Z,99.90
2018-03-15T05:30:03.479Z,99.90
2018-03-15T05:32:30.962Z,99.90
2018-03-15T05:34:58.467Z,99.90
2018-03-15T05:37:25.975Z,99.90
2018-03-15T05:39:53.499Z,99.90
2018-03-15T05:42:20.990Z,99.90
2018-03-15T05:44:49.161Z,99.90
2018-03-15T05:47:16.659Z,99.90
2018-03-15T05:49:44.917Z,99.90
2018-03-15T05:52:12.414Z,99.90
2018-03-15T05:54:39.898Z,99.90
2018-03-15T05:57:07.385Z,99.90
2018-03-15T05:59:34.907Z,99.90
2018-03-15T06:02:02.417Z,99.90
2018-03-15T06:04:29.911Z,99.90
2018-03-15T06:06:57.403Z,99.90
2018-03-15T06:09:24.896Z,99.90
2018-03-15T06:11:53.164Z,99.90
2018-03-15T06:14:21.436Z,99.90
2018-03-15T06:16:48.932Z,99.90
2018-03-15T06:19:17.409Z,99.90
2018-03-15T06:21:44.876Z,99.90
2018-03-15T06:24:12.892Z,99.90
2018-03-15T06:26:41.238Z,99.90
2018-03-15T06:29:08.754Z,99.90
2018-03-15T06:31:37.041Z,99.90
2018-03-15T06:34:05.342Z,99.90
2018-03-15T06:36:32.844Z,99.90
2018-03-15T06:39:00.651Z,99.90
2018-03-15T06:41:28.183Z,99.90
2018-03-15T06:43:56.057Z,99.90
2018-03-15T06:46:23.588Z,99.90
2018-03-15T06:48:51.904Z,99.40
2018-03-15T06:51:20.144Z,99.20
2018-03-15T06:53:48.376Z,99.10
2018-03-15T06:56:15.873Z,98.60
2018-03-15T06:58:43.378Z,98.20
2018-03-15T07:01:10.913Z,98.20
2018-03-15T07:03:39.178Z,98.10
2018-03-15T07:06:06.704Z,98.10
2018-03-15T07:08:34.406Z,98.10
2018-03-15T07:11:01.947Z,98.40
2018-03-15T07:13:29.786Z,98.20
2018-03-15T07:15:57.280Z,98.30
2018-03-15T07:18:25.595Z,98.80
2018-03-15T07:20:53.101Z,98.70
2018-03-15T07:23:20.594Z,98.90
2018-03-15T07:25:49.125Z,98.90
2018-03-15T07:28:16.615Z,99.10
2018-03-15T07:30:44.131Z,99.30
2018-03-15T07:33:11.797Z,98.90
2018-03-15T07:35:39.268Z,99.00
2018-03-15T07:38:06.796Z,98.90
2018-03-15T07:40:34.300Z,98.80
2018-03-15T07:43:01.841Z,98.60
2018-03-15T07:45:29.350Z,98.40
2018-03-15T07:47:56.862Z,98.30
2018-03-15T07:50:24.369Z,98.50
2018-03-15T07:52:52.032Z,98.10
2018-03-15T07:55:19.558Z,97.80
2018-03-15T07:57:47.060Z,98.10
2018-03-15T08:00:14.554Z,98.30
2018-03-15T08:02:42.083Z,98.00
2018-03-15T08:05:09.576Z,98.20
2018-03-15T08:07:37.088Z,98.30
2018-03-15T08:10:04.582Z,98.30
2018-03-15T08:12:32.341Z,98.00
2018-03-15T08:14:59.843Z,98.10
2018-03-15T08:17:28.118Z,98.00
2018-03-15T08:19:56.389Z,97.90
2018-03-15T08:22:24.657Z,97.90
2018-03-15T08:24:52.142Z,97.90
2018-03-15T08:27:20.442Z,97.80
2018-03-15T08:29:47.931Z,97.80
2018-03-15T08:32:15.440Z,97.60
2018-03-15T08:34:42.918Z,97.50
2018-03-15T08:37:10.408Z,97.20
2018-03-15T08:39:37.949Z,97.20
2018-03-15T08:42:05.411Z,97.00
2018-03-15T08:44:32.904Z,96.80
2018-03-15T08:47:00.392Z,97.20
2018-03-15T08:49:27.917Z,97.00
2018-03-15T08:51:55.467Z,97.20
2018-03-15T08:54:22.965Z,96.30
2018-03-15T08:56:50.462Z,96.40
2018-03-15T08:59:17.935Z,96.20
2018-03-15T09:01:45.454Z,95.20
2018-03-15T09:04:12.973Z,95.90
2018-03-15T09:06:40.444Z,95.50
2018-03-15T09:09:08.750Z,95.00
2018-03-15T09:11:36.292Z,95.00
2018-03-15T09:14:03.804Z,95.10
2018-03-15T09:16:31.316Z,95.50
2018-03-15T09:18:58.846Z,95.50
2018-03-15T09:21:26.406Z,95.40
2018-03-15T09:23:53.916Z,95.00
2018-03-15T09:26:21.413Z,95.20
2018-03-15T09:28:49.734Z,95.30
2018-03-15T09:31:17.244Z,95.20
2018-03-15T09:33:45.527Z,94.80
2018-03-15T09:36:13.823Z,94.80
2018-03-15T09:38:41.298Z,94.80
2018-03-15T09:41:08.827Z,94.80
2018-03-15T09:43:36.663Z,94.70
2018-03-15T09:46:04.374Z,94.50
2018-03-15T09:48:31.835Z,94.30
2018-03-15T09:50:59.389Z,94.30
2018-03-15T09:53:26.924Z,93.80
2018-03-15T09:55:54.447Z,93.40
2018-03-15T09:58:21.936Z,93.70
2018-03-15T10:00:50.211Z,93.30
2018-03-15T10:03:18.504Z,93.30
2018-03-15T10:05:46.054Z,93.30
2018-03-15T10:08:14.237Z,92.90
2018-03-15T10:10:41.736Z,92.80
2018-03-15T10:13:09.258Z,92.80
2018-03-15T10:15:36.746Z,92.80
2018-03-15T10:18:04.235Z,93.10
2018-03-15T10:20:32.552Z,93.30
2018-03-15T10:23:00.087Z,93.20
2018-03-15T10:25:27.712Z,93.00
2018-03-15T10:27:55.140Z,92.60
2018-03-15T10:30:22.628Z,92.70
2018-03-15T10:32:55.837Z,92.10
2018-03-15T10:35:28.283Z,92.60
2018-03-15T10:37:55.805Z,92.60
2018-03-15T10:40:23.302Z,92.30
2018-03-15T10:42:50.830Z,92.70
2018-03-15T10:45:18.351Z,92.20
2018-03-15T10:47:45.833Z,92.10
2018-03-15T10:50:13.359Z,92.40
2018-03-15T10:52:40.875Z,92.50
2018-03-15T10:55:08.387Z,92.10
2018-03-15T10:57:36.652Z,92.70
2018-03-15T11:00:04.207Z,92.60
2018-03-15T11:02:37.377Z,92.20
2018-03-15T11:05:04.909Z,92.10
2018-03-15T11:07:38.472Z,92.20
2018-03-15T11:10:06.734Z,92.20
2018-03-15T11:12:34.227Z,92.20
2018-03-15T11:15:01.776Z,92.40
2018-03-15T11:17:29.300Z,92.30
2018-03-15T11:19:57.592Z,92.40
2018-03-15T11:22:25.081Z,92.40
2018-03-15T11:24:52.574Z,92.50
2018-03-15T11:27:20.202Z,92.60
2018-03-15T11:29:47.734Z,92.10
2018-03-15T11:32:16.013Z,92.40
2018-03-15T11:34:44.282Z,92.70
2018-03-15T11:37:12.551Z,92.30
2018-03-15T11:39:40.075Z,92.30
2018-03-15T11:42:07.568Z,91.90
2018-03-15T11:44:35.094Z,91.50
2018-03-15T11:47:02.575Z,90.70
2018-03-15T11:49:30.091Z,91.10
2018-03-15T11:51:58.381Z,91.00
2018-03-15T11:54:25.885Z,91.00
2018-03-15T11:56:54.216Z,90.70
2018-03-15T11:59:21.732Z,90.70
2018-03-15T12:01:49.241Z,91.00
2018-03-15T12:04:16.773Z,91.20
2018-03-15T12:06:44.282Z,91.30
2018-03-15T12:09:11.820Z,91.20
2018-03-15T12:11:39.352Z,91.20
2018-03-15T12:14:07.002Z,91.00
2018-03-15T12:16:34.514Z,90.70
2018-03-15T12:19:02.002Z,90.90
2018-03-15T12:21:29.550Z,91.10
2018-03-15T12:23:57.033Z,90.90
2018-03-15T12:26:24.534Z,90.90
2018-03-15T12:28:52.036Z,91.10
2018-03-15T12:31:20.350Z,91.60
2018-03-15T12:33:48.594Z,91.60
2018-03-15T12:36:16.081Z,91.60
2018-03-15T12:38:43.569Z,91.80
2018-03-15T12:41:11.071Z,91.40
2018-03-15T12:43:38.574Z,91.70
2018-03-15T12:46:06.079Z,91.30
2018-03-15T12:48:33.571Z,91.50
2018-03-15T12:51:01.052Z,91.50
2018-03-15T12:53:28.577Z,91.40
2018-03-15T12:55:56.080Z,91.30
2018-03-15T12:58:23.574Z,91.10
2018-03-15T13:00:51.082Z,91.20
2018-03-15T13:03:18.569Z,90.70
2018-03-15T13:05:46.852Z,91.00
2018-03-15T13:08:15.131Z,90.50
2018-03-15T13:10:43.408Z,90.20
2018-03-15T13:13:11.686Z,90.00
2018-03-15T13:15:39.169Z,89.90
2018-03-15T13:18:06.676Z,90.00
2018-03-15T13:20:34.163Z,90.20
2018-03-15T13:23:02.430Z,89.00
2018-03-15T13:25:30.692Z,89.90
2018-03-15T13:27:58.192Z,89.70
2018-03-15T13:30:25.707Z,89.40
2018-03-15T13:32:53.178Z,89.70
2018-03-15T13:35:21.437Z,90.00
2018-03-15T13:37:48.942Z,89.80
2018-03-15T13:40:16.436Z,90.30
2018-03-15T13:42:43.927Z,89.30
2018-03-15T13:45:11.417Z,89.80
2018-03-15T13:47:38.925Z,89.50
2018-03-15T13:50:06.416Z,89.40
2018-03-15T13:52:35.494Z,89.40
2018-03-15T13:55:03.815Z,90.00
2018-03-15T13:57:31.296Z,89.90
2018-03-15T13:59:58.782Z,88.60
2018-03-15T14:02:26.292Z,88.20
2018-03-15T14:04:53.815Z,88.40
2018-03-15T14:07:21.321Z,87.70
2018-03-15T14:09:48.812Z,87.80
2018-03-15T14:12:20.037Z,87.40
2018-03-15T14:14:47.571Z,87.20
2018-03-15T14:17:15.048Z,88.10
2018-03-15T14:19:43.339Z,88.90
2018-03-15T14:22:10.823Z,88.80
2018-03-15T14:24:41.701Z,88.90
2018-03-15T14:27:09.201Z,88.80
2018-03-15T14:29:37.499Z,88.70
2018-03-15T14:32:05.740Z,89.20
2018-03-15T14:34:33.214Z,89.10
2018-03-15T14:37:01.476Z,88.10
2018-03-15T14:39:28.943Z,88.00
2018-03-15T14:41:57.189Z,89.90
2018-03-15T14:44:24.679Z,89.10
2018-03-15T14:46:52.924Z,89.10
2018-03-15T14:49:20.411Z,89.00
2018-03-15T14:51:48.695Z,89.60
2018-03-15T14:54:16.173Z,89.90
2018-03-15T14:56:43.710Z,89.80
2018-03-15T14:59:11.946Z,89.10
2018-03-15T15:01:39.494Z,89.10
2018-03-15T15:04:06.975Z,88.90
2018-03-15T15:06:34.444Z,88.90
2018-03-15T15:09:02.720Z,89.20
2018-03-15T15:11:30.232Z,89.10
2018-03-15T15:13:57.755Z,89.30
2018-03-15T15:16:26.004Z,88.80
2018-03-15T15:18:53.513Z,88.90
2018-03-15T15:21:21.000Z,88.80
2018-03-15T15:23:48.557Z,88.40
2018-03-15T15:26:16.041Z,88.10
2018-03-15T15:28:44.334Z,88.70
2018-03-15T15:31:12.577Z,88.70
2018-03-15T15:33:40.112Z,88.70
2018-03-15T15:36:07.599Z,88.50
2018-03-15T15:38:35.105Z,89.50
2018-03-15T15:41:02.605Z,89.40
2018-03-15T15:43:30.098Z,89.80
2018-03-15T15:45:57.624Z,89.20
2018-03-15T15:48:25.111Z,89.50
2018-03-15T15:50:53.376Z,89.30
2018-03-15T15:53:21.660Z,89.50
2018-03-15T15:55:49.930Z,89.60
2018-03-15T15:58:18.191Z,89.60
2018-03-15T16:00:45.672Z,89.60
2018-03-15T16:03:13.956Z,90.30
2018-03-15T16:05:42.918Z,90.40
2018-03-15T16:08:10.440Z,90.40
2018-03-15T16:10:37.917Z,90.60
2018-03-15T16:13:11.955Z,90.60
2018-03-15T16:15:40.273Z,90.90
2018-03-15T16:18:07.729Z,90.90
2018-03-15T16:20:35.223Z,91.70
2018-03-15T16:23:02.703Z,92.70
2018-03-15T16:25:30.204Z,93.20
2018-03-15T16:27:57.703Z,93.30
2018-03-15T16:30:25.186Z,93.60
2018-03-15T16:32:54.046Z,93.90
2018-03-15T16:35:21.783Z,93.90
2018-03-15T16:37:49.298Z,93.60
2018-03-15T16:40:17.794Z,94.10
2018-03-15T16:42:45.307Z,94.10
2018-03-15T16:45:12.803Z,94.50
2018-03-15T16:47:41.049Z,95.00
2018-03-15T16:50:08.532Z,95.00
2018-03-15T16:52:36.816Z,94.70
2018-03-15T16:55:05.052Z,94.70
2018-03-15T16:57:32.580Z,94.70
2018-03-15T17:00:01.330Z,94.90
2018-03-15T17:02:29.442Z,94.90
2018-03-15T17:04:57.646Z,95.00
2018-03-15T17:07:25.171Z,95.00
2018-03-15T17:09:52.672Z,94.70
2018-03-15T17:12:20.165Z,94.50
2018-03-15T17:14:47.700Z,95.00
2018-03-15T17:17:15.200Z,95.40
2018-03-15T17:19:42.743Z,95.80
2018-03-15T17:22:10.240Z,96.20
2018-03-15T17:24:37.735Z,96.10
2018-03-15T17:27:06.015Z,96.10
2018-03-15T17:29:34.266Z,95.90
2018-03-15T17:32:01.748Z,95.90
2018-03-15T17:34:32.809Z,96.10
2018-03-15T17:37:00.302Z,96.10
2018-03-15T17:39:27.808Z,95.90
2018-03-15T17:41:56.073Z,96.20
2018-03-15T17:44:24.388Z,96.20
2018-03-15T17:46:51.911Z,96.10
2018-03-15T17:49:19.436Z,96.30
2018-03-15T17:51:46.943Z,95.90
2018-03-15T17:54:14.446Z,96.30
2018-03-15T17:56:41.939Z,95.60
2018-03-15T17:59:09.462Z,96.00
2018-03-15T18:01:36.954Z,96.00
2018-03-15T18:04:05.427Z,95.80
2018-03-15T18:06:32.910Z,95.70
2018-03-15T18:09:00.394Z,95.50
2018-03-15T18:11:27.907Z,95.30
2018-03-15T18:13:55.397Z,95.40
2018-03-15T18:16:22.894Z,95.60
2018-03-15T18:18:50.376Z,95.90
2018-03-15T18:21:17.880Z,96.10
2018-03-15T18:23:45.393Z,96.10
2018-03-15T18:26:13.668Z,96.20
2018-03-15T18:28:41.161Z,96.20
2018-03-15T18:31:08.700Z,96.10
2018-03-15T18:33:36.967Z,96.20
2018-03-15T18:36:04.473Z,96.20
2018-03-15T18:38:31.982Z,96.00
2018-03-15T18:41:00.504Z,95.70
2018-03-15T18:43:28.020Z,95.70
2018-03-15T18:45:55.953Z,95.50
2018-03-15T18:48:23.507Z,96.00
2018-03-15T18:50:50.995Z,96.10
2018-03-15T18:53:18.495Z,96.20
2018-03-15T18:55:45.985Z,95.90
2018-03-15T18:58:13.492Z,96.10
2018-03-15T19:00:41.750Z,95.50
2018-03-15T19:03:09.260Z,95.50
2018-03-15T19:05:36.746Z,95.70
2018-03-15T19:08:04.230Z,95.60
2018-03-15T19:10:32.478Z,95.40
2018-03-15T19:13:00.032Z,95.40
2018-03-15T19:15:27.491Z,95.30
2018-03-15T19:17:55.000Z,95.50
2018-03-15T19:20:22.487Z,95.30
2018-03-15T19:22:50.728Z,95.20
2018-03-15T19:25:18.238Z,95.20
2018-03-15T19:27:46.579Z,95.00
2018-03-15T19:30:14.090Z,95.00
2018-03-15T19:32:41.564Z,95.10
2018-03-15T19:35:09.838Z,95.00
2018-03-15T19:37:38.119Z,94.60
2018-03-15T19:40:06.368Z,94.70
2018-03-15T19:42:33.883Z,94.70
2018-03-15T19:45:01.367Z,94.40
2018-03-15T19:47:28.838Z,94.40
2018-03-15T19:49:56.399Z,94.60
2018-03-15T19:52:24.604Z,94.70
2018-03-15T19:54:53.021Z,94.60
2018-03-15T19:57:21.519Z,94.50
2018-03-15T19:59:48.990Z,94.50
2018-03-15T20:02:16.483Z,94.40
2018-03-15T20:04:43.986Z,94.40
2018-03-15T20:07:18.541Z,94.20
2018-03-15T20:09:46.743Z,94.50
2018-03-15T20:12:14.240Z,94.50
2018-03-15T20:14:41.743Z,94.40
2018-03-15T20:17:09.995Z,94.80
2018-03-15T20:19:37.564Z,94.70
2018-03-15T20:22:05.083Z,95.00
2018-03-15T20:24:32.574Z,95.00
2018-03-15T20:27:00.067Z,95.10
2018-03-15T20:29:27.576Z,95.20
2018-03-15T20:31:55.096Z,95.30
2018-03-15T20:34:22.583Z,95.50
2018-03-15T20:36:50.079Z,95.90
2018-03-15T20:39:23.254Z,95.80
2018-03-15T20:41:50.756Z,95.90
2018-03-15T20:44:18.284Z,95.90
2018-03-15T20:46:52.494Z,96.00
2018-03-15T20:49:20.007Z,96.00
2018-03-15T20:51:47.529Z,95.60
2018-03-15T20:54:15.026Z,95.80
2018-03-15T20:56:42.561Z,95.80
2018-03-15T20:59:10.073Z,96.00
2018-03-15T21:01:37.602Z,95.90
2018-03-15T21:04:05.064Z,96.10
2018-03-15T21:06:32.586Z,96.20
2018-03-15T21:09:00.846Z,96.40
2018-03-15T21:11:29.128Z,96.50
2018-03-15T21:13:57.433Z,96.70
2018-03-15T21:16:24.921Z,96.70
2018-03-15T21:18:52.455Z,96.80
2018-03-15T21:21:19.975Z,96.90
2018-03-15T21:23:48.237Z,97.80
2018-03-15T21:26:15.742Z,97.90
2018-03-15T21:28:43.271Z,98.10
2018-03-15T21:31:10.799Z,98.20
2018-03-15T21:33:38.293Z,98.30
2018-03-15T21:36:06.558Z,98.50
2018-03-15T21:38:34.849Z,98.50
2018-03-15T21:41:02.344Z,98.50
2018-03-15T21:43:29.861Z,98.60
2018-03-15T21:45:57.347Z,98.80
2018-03-15T21:48:24.870Z,98.80
2018-03-15T21:50:52.401Z,99.20
2018-03-15T21:53:19.885Z,99.40
2018-03-15T21:55:48.210Z,99.60
2018-03-15T21:58:15.710Z,99.90
2018-03-15T22:00:43.220Z,99.90
2018-03-15T22:03:10.710Z,99.90
2018-03-15T22:05:38.282Z,99.90
2018-03-15T22:08:05.787Z,99.90
2018-03-15T22:10:33.339Z,99.90
2018-03-15T22:13:00.822Z,99.90
2018-03-15T22:15:28.347Z,99.90
2018-03-15T22:17:55.846Z,99.90
2018-03-15T22:20:23.360Z,99.90
2018-03-15T22:22:50.856Z,99.90
2018-03-15T22:25:18.364Z,99.90
2018-03-15T22:27:45.883Z,99.90
2018-03-15T22:30:13.377Z,99.90
2018-03-15T22:32:41.668Z,99.90
2018-03-15T22:35:09.142Z,99.90
2018-03-15T22:37:36.635Z,99.90
2018-03-15T22:40:04.167Z,99.90
2018-03-15T22:42:31.693Z,99.90
2018-03-15T22:44:59.205Z,99.90
2018-03-15T22:47:26.816Z,99.90
2018-03-15T22:49:54.335Z,99.90
2018-03-15T22:52:21.844Z,99.90
2018-03-15T22:54:49.341Z,99.90
2018-03-15T22:57:16.867Z,99.90
2018-03-15T22:59:44.356Z,99.90
2018-03-15T23:02:11.838Z,99.90
2018-03-15T23:04:39.340Z,99.90
2018-03-15T23:07:06.821Z,99.90
2018-03-15T23:09:34.325Z,99.90
2018-03-15T23:12:02.649Z,99.90
2018-03-15T23:14:30.159Z,99.90
2018-03-15T23:16:58.429Z,99.90
2018-03-15T23:19:27.879Z,99.90
2018-03-15T23:21:55.407Z,99.90
2018-03-15T23:24:22.888Z,99.90
2018-03-15T23:26:50.375Z,99.90
2018-03-15T23:29:17.891Z,99.90
2018-03-15T23:31:45.371Z,99.90
2018-03-15T23:34:12.865Z,99.90
2018-03-15T23:36:40.341Z,99.90
2018-03-15T23:39:08.584Z,99.90
2018-03-15T23:41:36.111Z,99.90
2018-03-15T23:44:03.593Z,99.90
2018-03-15T23:46:31.096Z,99.90
2018-03-15T23:48:58.580Z,99.90
2018-03-15T23:51:26.090Z,99.90
2018-03-15T23:53:53.634Z,99.90
2018-03-15T23:56:21.131Z,99.90
2018-03-15T23:58:48.631Z,99.90
